createdAt,value
2018-03-09T00:02:20.526Z,6.50
2018-03-09T00:04:48.045Z,6.40
2018-03-09T00:07:15.523Z,6.40
2018-03-09T00:09:43.001Z,6.40
2018-03-09T00:12:11.278Z,6.40
2018-03-09T00:14:39.793Z,6.40
2018-03-09T00:17:07.350Z,6.30
2018-03-09T00:19:34.846Z,6.30
2018-03-09T00:22:02.341Z,6.20
2018-03-09T00:24:29.813Z,6.20
2018-03-09T00:26:57.323Z,6.20
2018-03-09T00:29:24.797Z,6.20
2018-03-09T00:31:53.045Z,6.20
2018-03-09T00:34:22.049Z,6.20
2018-03-09T00:36:49.529Z,6.20
2018-03-09T00:39:17.773Z,6.10
2018-03-09T00:41:45.273Z,6.10
2018-03-09T00:44:12.752Z,6.10
2018-03-09T00:46:40.226Z,6.10
2018-03-09T00:49:07.722Z,6.00
2018-03-09T00:51:36.254Z,6.10
2018-03-09T00:54:03.725Z,6.00
2018-03-09T00:56:31.217Z,6.10
2018-03-09T00:58:58.932Z,6.00
2018-03-09T01:01:26.453Z,5.80
2018-03-09T01:03:54.713Z,5.60
2018-03-09T01:06:22.998Z,5.50
2018-03-09T01:08:51.274Z,5.40
2018-03-09T01:11:19.542Z,5.40
2018-03-09T01:13:47.793Z,5.30
2018-03-09T01:16:15.273Z,5.30
2018-03-09T01:18:43.540Z,5.20
2018-03-09T01:21:11.020Z,5.20
2018-03-09T01:23:39.261Z,5.30
2018-03-09T01:26:06.754Z,5.30
2018-03-09T01:28:35.000Z,5.30
2018-03-09T01:31:02.577Z,5.30
2018-03-09T01:33:30.882Z,5.50
2018-03-09T01:35:58.352Z,5.50
2018-03-09T01:38:25.833Z,5.60
2018-03-09T01:40:53.333Z,5.50
2018-03-09T01:43:21.597Z,5.30
2018-03-09T01:45:49.848Z,5.10
2018-03-09T01:48:17.341Z,5.10
2018-03-09T01:50:45.859Z,5.10
2018-03-09T01:53:13.374Z,5.10
2018-03-09T01:55:41.633Z,5.00
2018-03-09T01:58:11.489Z,4.80
2018-03-09T02:00:39.561Z,4.80
2018-03-09T02:03:07.901Z,4.50
2018-03-09T02:05:36.142Z,4.40
2018-03-09T02:08:03.673Z,4.40
2018-03-09T02:10:31.900Z,4.30
2018-03-09T02:12:59.377Z,4.30
2018-03-09T02:15:27.898Z,4.50
2018-03-09T02:17:55.662Z,4.40
2018-03-09T02:20:23.137Z,4.50
2018-03-09T02:22:50.610Z,4.60
2018-03-09T02:25:18.342Z,4.70
2018-03-09T02:27:45.985Z,4.80
2018-03-09T02:30:13.685Z,4.80
2018-03-09T02:32:41.193Z,4.80
2018-03-09T02:35:08.674Z,4.90
2018-03-09T02:37:36.190Z,4.90
2018-03-09T02:40:04.474Z,4.80
2018-03-09T02:42:32.745Z,4.80
2018-03-09T02:45:00.985Z,4.80
2018-03-09T02:47:28.493Z,4.80
2018-03-09T02:49:55.964Z,4.80
2018-03-09T02:52:23.448Z,4.80
2018-03-09T02:54:50.953Z,4.80
2018-03-09T02:57:19.230Z,4.70
2018-03-09T02:59:47.501Z,4.80
2018-03-09T03:02:15.775Z,4.70
2018-03-09T03:04:44.017Z,4.80
2018-03-09T03:07:11.511Z,4.80
2018-03-09T03:09:39.776Z,4.70
2018-03-09T03:12:08.022Z,4.70
2018-03-09T03:14:35.502Z,4.70
2018-03-09T03:17:03.001Z,4.60
2018-03-09T03:19:30.478Z,4.60
2018-03-09T03:21:57.951Z,4.50
2018-03-09T03:24:25.454Z,4.50
2018-03-09T03:26:53.693Z,4.50
2018-03-09T03:29:21.180Z,4.50
2018-03-09T03:31:48.714Z,4.60
2018-03-09T03:34:16.205Z,4.50
2018-03-09T03:36:44.465Z,4.50
2018-03-09T03:39:12.788Z,4.50
2018-03-09T03:41:40.275Z,4.50
2018-03-09T03:44:07.771Z,4.60
2018-03-09T03:46:36.034Z,4.50
2018-03-09T03:49:04.277Z,4.50
2018-03-09T03:51:31.752Z,4.50
2018-03-09T03:53:59.247Z,4.50
2018-03-09T03:56:26.727Z,4.50
2018-03-09T03:58:54.201Z,4.50
2018-03-09T04:01:21.698Z,4.50
2018-03-09T04:03:49.938Z,4.40
2018-03-09T04:06:17.529Z,4.40
2018-03-09T04:08:45.805Z,4.50
2018-03-09T04:11:14.050Z,4.50
2018-03-09T04:13:41.530Z,4.50
2018-03-09T04:16:10.549Z,4.50
2018-03-09T04:18:38.021Z,4.50
2018-03-09T04:21:05.493Z,4.50
2018-03-09T04:23:32.985Z,4.50
2018-03-09T04:26:00.466Z,4.60
2018-03-09T04:28:28.705Z,4.60
2018-03-09T04:30:56.197Z,4.60
2018-03-09T04:33:24.441Z,4.60
2018-03-09T04:35:51.917Z,4.60
2018-03-09T04:38:19.414Z,4.50
2018-03-09T04:40:46.981Z,4.50
2018-03-09T04:43:14.453Z,4.50
2018-03-09T04:45:41.949Z,4.50
2018-03-09T04:48:09.421Z,4.50
2018-03-09T04:50:37.657Z,4.60
2018-03-09T04:53:05.149Z,4.60
2018-03-09T04:55:33.392Z,4.60
2018-03-09T04:58:00.866Z,4.60
2018-03-09T05:00:29.126Z,4.60
2018-03-09T05:02:56.605Z,4.60
2018-03-09T05:05:24.078Z,4.60
2018-03-09T05:07:52.337Z,4.70
2018-03-09T05:10:20.592Z,4.80
2018-03-09T05:12:48.070Z,4.70
2018-03-09T05:15:16.349Z,4.70
2018-03-09T05:17:44.589Z,4.70
2018-03-09T05:20:12.074Z,4.70
2018-03-09T05:22:39.565Z,4.60
2018-03-09T05:25:07.045Z,4.60
2018-03-09T05:27:34.627Z,4.60
2018-03-09T05:30:02.923Z,4.60
2018-03-09T05:32:30.405Z,4.60
2018-03-09T05:34:57.881Z,4.50
2018-03-09T05:37:25.549Z,4.50
2018-03-09T05:39:53.757Z,4.50
2018-03-09T05:42:21.229Z,4.50
2018-03-09T05:44:48.734Z,4.50
2018-03-09T05:47:16.210Z,4.50
2018-03-09T05:49:43.693Z,4.50
2018-03-09T05:52:11.187Z,4.50
2018-03-09T05:54:38.665Z,4.40
2018-03-09T05:57:06.138Z,4.30
2018-03-09T05:59:33.630Z,4.30
2018-03-09T06:02:01.889Z,4.40
2018-03-09T06:04:29.365Z,4.40
2018-03-09T06:06:57.629Z,4.20
2018-03-09T06:09:25.142Z,4.20
2018-03-09T06:11:52.624Z,4.20
2018-03-09T06:14:20.120Z,4.10
2018-03-09T06:16:48.365Z,4.20
2018-03-09T06:19:15.837Z,4.20
2018-03-09T06:21:44.837Z,4.10
2018-03-09T06:24:12.313Z,4.10
2018-03-09T06:26:40.553Z,4.00
2018-03-09T06:29:08.049Z,4.00
2018-03-09T06:31:35.525Z,4.00
2018-03-09T06:34:03.090Z,4.00
2018-03-09T06:36:30.601Z,4.10
2018-03-09T06:38:58.173Z,4.30
2018-03-09T06:41:26.483Z,4.40
2018-03-09T06:43:53.985Z,4.40
2018-03-09T06:46:21.562Z,4.30
2018-03-09T06:48:49.805Z,4.40
2018-03-09T06:51:17.318Z,4.40
2018-03-09T06:53:44.891Z,4.50
2018-03-09T06:56:12.369Z,4.50
2018-03-09T06:58:39.866Z,4.40
2018-03-09T07:01:08.161Z,4.50
2018-03-09T07:03:35.635Z,4.50
2018-03-09T07:06:03.125Z,4.60
2018-03-09T07:08:30.609Z,4.70
2018-03-09T07:10:58.084Z,4.90
2018-03-09T07:13:26.598Z,5.30
2018-03-09T07:15:54.465Z,5.30
2018-03-09T07:18:21.944Z,5.50
2018-03-09T07:20:49.434Z,5.70
2018-03-09T07:23:17.710Z,6.10
2018-03-09T07:25:46.241Z,6.20
2018-03-09T07:28:13.737Z,6.20
2018-03-09T07:30:41.209Z,6.30
2018-03-09T07:33:09.461Z,6.40
2018-03-09T07:35:36.960Z,6.40
2018-03-09T07:38:04.436Z,6.40
2018-03-09T07:40:31.915Z,6.50
2018-03-09T07:42:59.410Z,6.50
2018-03-09T07:45:27.677Z,6.50
2018-03-09T07:47:55.961Z,6.50
2018-03-09T07:50:24.225Z,6.50
2018-03-09T07:52:51.705Z,6.50
2018-03-09T07:55:19.953Z,6.60
2018-03-09T07:57:47.536Z,6.60
2018-03-09T08:00:15.789Z,6.60
2018-03-09T08:02:43.274Z,6.60
2018-03-09T08:05:10.778Z,6.60
2018-03-09T08:07:38.257Z,6.60
2018-03-09T08:10:05.740Z,6.60
2018-03-09T08:12:34.002Z,6.50
2018-03-09T08:15:01.522Z,6.50
2018-03-09T08:17:29.018Z,6.50
2018-03-09T08:19:56.511Z,6.60
2018-03-09T08:22:24.285Z,6.70
2018-03-09T08:24:51.763Z,6.80
2018-03-09T08:27:19.258Z,6.90
2018-03-09T08:29:47.506Z,7.10
2018-03-09T08:32:14.989Z,7.10
2018-03-09T08:34:43.269Z,7.30
2018-03-09T08:37:11.545Z,7.40
2018-03-09T08:39:39.792Z,7.50
2018-03-09T08:42:08.070Z,7.60
2018-03-09T08:44:36.410Z,7.60
2018-03-09T08:47:03.942Z,7.60
2018-03-09T08:49:31.446Z,7.70
2018-03-09T08:51:59.010Z,7.70
2018-03-09T08:54:26.489Z,7.70
2018-03-09T08:56:53.984Z,7.80
2018-03-09T08:59:21.526Z,7.90
2018-03-09T09:01:49.797Z,8.00
2018-03-09T09:04:17.273Z,8.00
2018-03-09T09:06:44.749Z,8.10
2018-03-09T09:09:14.121Z,8.40
2018-03-09T09:11:42.377Z,8.50
2018-03-09T09:14:09.848Z,8.50
2018-03-09T09:16:38.085Z,8.90
2018-03-09T09:19:05.577Z,8.90
2018-03-09T09:21:33.818Z,9.30
2018-03-09T09:24:03.238Z,9.50
2018-03-09T09:26:32.242Z,9.70
2018-03-09T09:29:00.773Z,9.90
2018-03-09T09:31:28.254Z,9.90
2018-03-09T09:33:55.749Z,10.20
2018-03-09T09:36:24.018Z,10.40
2018-03-09T09:38:52.265Z,10.40
2018-03-09T09:41:19.766Z,10.40
2018-03-09T09:43:47.242Z,10.50
2018-03-09T09:46:14.726Z,10.70
2018-03-09T09:48:42.268Z,10.70
2018-03-09T09:51:09.785Z,10.60
2018-03-09T09:53:38.266Z,10.90
2018-03-09T09:56:06.533Z,10.90
2018-03-09T09:58:34.777Z,10.90
2018-03-09T10:01:02.273Z,10.90
2018-03-09T10:03:30.533Z,11.20
2018-03-09T10:05:58.109Z,11.20
2018-03-09T10:08:26.394Z,11.70
2018-03-09T10:10:54.653Z,11.90
2018-03-09T10:13:22.897Z,12.00
2018-03-09T10:15:50.374Z,12.00
2018-03-09T10:18:17.949Z,12.00
2018-03-09T10:20:46.469Z,12.20
2018-03-09T10:23:13.950Z,12.20
2018-03-09T10:25:41.541Z,12.30
2018-03-09T10:28:09.808Z,12.30
2018-03-09T10:30:37.302Z,12.20
2018-03-09T10:33:04.803Z,12.30
2018-03-09T10:35:32.291Z,12.40
2018-03-09T10:38:00.538Z,12.50
2018-03-09T10:40:28.049Z,12.40
2018-03-09T10:42:55.525Z,12.50
2018-03-09T10:45:23.000Z,12.40
2018-03-09T10:47:50.618Z,12.40
2018-03-09T10:50:18.096Z,12.50
2018-03-09T10:52:45.618Z,12.50
2018-03-09T10:55:13.885Z,12.70
2018-03-09T10:57:42.134Z,12.70
2018-03-09T11:00:10.230Z,12.70
2018-03-09T11:02:37.739Z,12.70
2018-03-09T11:05:05.218Z,12.80
2018-03-09T11:07:32.698Z,12.90
2018-03-09T11:10:00.198Z,13.00
2018-03-09T11:12:27.677Z,12.90
2018-03-09T11:14:55.165Z,12.80
2018-03-09T11:17:22.662Z,12.80
2018-03-09T11:19:50.197Z,12.70
2018-03-09T11:22:18.449Z,12.70
2018-03-09T11:24:47.454Z,12.90
2018-03-09T11:27:15.002Z,12.90
2018-03-09T11:29:42.486Z,13.20
2018-03-09T11:32:11.210Z,13.40
2018-03-09T11:34:38.692Z,13.30
2018-03-09T11:37:06.942Z,13.30
2018-03-09T11:39:34.453Z,13.30
2018-03-09T11:42:02.982Z,13.10
2018-03-09T11:44:30.457Z,13.00
2018-03-09T11:46:57.993Z,13.20
2018-03-09T11:49:25.473Z,13.30
2018-03-09T11:51:53.218Z,13.20
2018-03-09T11:54:20.714Z,13.20
2018-03-09T11:56:48.197Z,13.10
2018-03-09T11:59:16.439Z,13.00
2018-03-09T12:01:43.938Z,13.00
2018-03-09T12:04:11.419Z,12.90
2018-03-09T12:06:38.950Z,13.00
2018-03-09T12:09:06.511Z,13.00
2018-03-09T12:11:34.053Z,13.00
2018-03-09T12:14:02.303Z,13.00
2018-03-09T12:16:29.801Z,13.00
2018-03-09T12:18:57.350Z,13.10
2018-03-09T12:21:25.594Z,13.00
2018-03-09T12:23:53.095Z,13.00
2018-03-09T12:26:20.574Z,13.10
2018-03-09T12:28:48.329Z,13.20
2018-03-09T12:31:15.823Z,13.20
2018-03-09T12:33:43.375Z,13.30
2018-03-09T12:36:10.832Z,13.30
2018-03-09T12:38:38.328Z,13.40
2018-03-09T12:41:06.570Z,13.60
2018-03-09T12:43:34.050Z,13.50
2018-03-09T12:46:01.546Z,13.60
2018-03-09T12:48:29.089Z,13.70
2018-03-09T12:50:56.570Z,13.70
2018-03-09T12:53:24.069Z,13.70
2018-03-09T12:55:51.794Z,13.50
2018-03-09T12:58:19.273Z,13.30
2018-03-09T13:00:46.769Z,13.40
2018-03-09T13:03:15.013Z,13.20
2018-03-09T13:05:42.490Z,13.20
2018-03-09T13:08:10.014Z,13.30
2018-03-09T13:10:37.489Z,13.40
2018-03-09T13:13:06.038Z,13.70
2018-03-09T13:15:36.041Z,13.90
2018-03-09T13:18:06.309Z,13.90
2018-03-09T13:20:33.793Z,13.70
2018-03-09T13:23:02.060Z,13.30
2018-03-09T13:25:30.306Z,13.20
2018-03-09T13:27:57.800Z,13.20
2018-03-09T13:30:26.061Z,13.00
2018-03-09T13:32:53.546Z,13.00
2018-03-09T13:35:21.785Z,13.10
2018-03-09T13:37:49.290Z,13.10
2018-03-09T13:40:16.859Z,12.90
2018-03-09T13:42:44.378Z,13.00
2018-03-09T13:45:12.649Z,13.40
2018-03-09T13:47:40.125Z,13.30
2018-03-09T13:50:08.368Z,13.10
2018-03-09T13:52:37.373Z,12.90
2018-03-09T13:55:04.861Z,12.90
2018-03-09T13:57:32.337Z,13.00
2018-03-09T14:00:00.813Z,12.90
2018-03-09T14:02:28.685Z,12.60
2018-03-09T14:04:56.161Z,12.70
2018-03-09T14:07:23.801Z,12.80
2018-03-09T14:09:51.278Z,13.00
2018-03-09T14:12:18.756Z,13.00
2018-03-09T14:14:46.253Z,13.00
2018-03-09T14:17:13.795Z,13.10
2018-03-09T14:19:42.037Z,13.30
2018-03-09T14:22:10.310Z,13.50
2018-03-09T14:24:37.814Z,13.50
2018-03-09T14:27:06.046Z,13.40
2018-03-09T14:29:34.322Z,13.50
2018-03-09T14:32:02.625Z,13.50
2018-03-09T14:34:30.864Z,13.60
2018-03-09T14:36:58.366Z,13.50
2018-03-09T14:39:26.615Z,13.60
2018-03-09T14:41:54.097Z,13.60
2018-03-09T14:44:22.402Z,13.50
2018-03-09T14:46:49.873Z,13.50
2018-03-09T14:49:17.349Z,13.50
2018-03-09T14:51:44.841Z,13.50
2018-03-09T14:54:13.094Z,13.20
2018-03-09T14:56:40.570Z,13.20
2018-03-09T14:59:08.833Z,12.90
2018-03-09T15:01:36.401Z,12.90
2018-03-09T15:04:04.646Z,12.80
2018-03-09T15:06:32.234Z,12.80
2018-03-09T15:09:00.481Z,12.60
2018-03-09T15:11:27.961Z,12.60
2018-03-09T15:13:56.252Z,12.70
2018-03-09T15:16:24.728Z,12.80
2018-03-09T15:18:52.973Z,12.70
2018-03-09T15:21:20.466Z,12.70
2018-03-09T15:23:48.706Z,12.50
2018-03-09T15:26:16.185Z,12.50
2018-03-09T15:28:44.449Z,12.60
2018-03-09T15:31:11.926Z,12.60
2018-03-09T15:33:42.166Z,12.50
2018-03-09T15:36:09.673Z,12.50
2018-03-09T15:38:37.150Z,12.50
2018-03-09T15:41:05.401Z,12.40
2018-03-09T15:43:32.989Z,12.40
2018-03-09T15:46:01.233Z,12.50
2018-03-09T15:48:28.713Z,12.50
2018-03-09T15:50:56.972Z,12.40
2018-03-09T15:53:24.448Z,12.40
2018-03-09T15:55:52.701Z,12.50
2018-03-09T15:58:20.205Z,12.50
2018-03-09T16:00:47.749Z,12.50
2018-03-09T16:03:15.994Z,12.60
2018-03-09T16:05:43.485Z,12.60
2018-03-09T16:08:11.730Z,12.60
2018-03-09T16:10:39.249Z,12.60
2018-03-09T16:13:07.486Z,12.40
2018-03-09T16:15:35.738Z,12.40
2018-03-09T16:18:03.981Z,12.30
2018-03-09T16:20:31.486Z,12.30
2018-03-09T16:22:59.061Z,12.30
2018-03-09T16:25:27.305Z,12.20
2018-03-09T16:27:54.797Z,12.20
2018-03-09T16:30:23.033Z,12.20
2018-03-09T16:32:50.587Z,12.20
2018-03-09T16:35:18.089Z,12.20
2018-03-09T16:37:46.334Z,12.20
2018-03-09T16:40:14.584Z,12.20
2018-03-09T16:42:42.087Z,12.20
2018-03-09T16:45:10.349Z,12.20
2018-03-09T16:47:37.828Z,12.20
2018-03-09T16:50:06.097Z,12.10
2018-03-09T16:52:34.484Z,12.00
2018-03-09T16:55:02.725Z,11.90
2018-03-09T16:57:31.742Z,11.90
2018-03-09T17:00:00.014Z,11.90
2018-03-09T17:02:28.271Z,11.80
2018-03-09T17:04:55.765Z,11.80
2018-03-09T17:07:23.238Z,11.80
2018-03-09T17:09:50.714Z,11.70
2018-03-09T17:12:18.305Z,11.60
2018-03-09T17:14:46.548Z,11.40
2018-03-09T17:17:14.025Z,11.40
2018-03-09T17:19:41.522Z,11.40
2018-03-09T17:22:09.003Z,11.30
2018-03-09T17:24:36.777Z,11.30
2018-03-09T17:27:04.269Z,11.30
2018-03-09T17:29:31.745Z,11.20
2018-03-09T17:32:00.270Z,11.10
2018-03-09T17:34:27.765Z,11.10
2018-03-09T17:36:55.248Z,11.10
2018-03-09T17:39:23.492Z,11.10
2018-03-09T17:41:50.993Z,11.10
2018-03-09T17:44:18.473Z,11.10
2018-03-09T17:46:46.238Z,11.10
2018-03-09T17:49:13.733Z,11.00
2018-03-09T17:51:41.582Z,11.00
2018-03-09T17:54:09.094Z,11.00
2018-03-09T17:56:36.607Z,11.00
2018-03-09T17:59:04.859Z,10.90
2018-03-09T18:01:32.337Z,11.00
2018-03-09T18:03:59.834Z,11.00
2018-03-09T18:06:28.081Z,10.90
2018-03-09T18:08:56.378Z,10.80
2018-03-09T18:11:24.645Z,10.80
2018-03-09T18:13:52.911Z,10.80
2018-03-09T18:16:20.392Z,10.80
2018-03-09T18:18:48.658Z,10.80
2018-03-09T18:21:16.902Z,10.80
2018-03-09T18:23:44.397Z,10.80
2018-03-09T18:26:11.921Z,10.80
2018-03-09T18:28:39.405Z,10.80
2018-03-09T18:31:07.646Z,10.70
2018-03-09T18:33:35.161Z,10.70
2018-03-09T18:36:02.698Z,10.70
2018-03-09T18:38:30.944Z,10.70
2018-03-09T18:40:58.445Z,10.70
2018-03-09T18:43:25.925Z,10.70
2018-03-09T18:45:53.492Z,10.70
2018-03-09T18:48:21.004Z,10.70
2018-03-09T18:50:49.281Z,10.70
2018-03-09T18:53:17.521Z,10.60
2018-03-09T18:55:45.021Z,10.60
2018-03-09T18:58:13.264Z,10.60
2018-03-09T19:00:40.745Z,10.60
2018-03-09T19:03:09.155Z,10.50
2018-03-09T19:05:36.636Z,10.40
2018-03-09T19:08:04.113Z,10.30
2018-03-09T19:10:31.613Z,10.30
2018-03-09T19:12:59.149Z,10.20
2018-03-09T19:15:27.391Z,10.20
2018-03-09T19:17:54.981Z,10.20
2018-03-09T19:20:23.221Z,10.20
2018-03-09T19:22:50.693Z,10.10
2018-03-09T19:25:18.188Z,10.20
2018-03-09T19:27:45.663Z,10.20
2018-03-09T19:30:13.149Z,10.20
2018-03-09T19:32:40.657Z,10.20
2018-03-09T19:35:08.897Z,10.20
2018-03-09T19:37:36.378Z,10.20
2018-03-09T19:40:04.658Z,10.20
2018-03-09T19:42:32.151Z,10.20
2018-03-09T19:44:59.913Z,10.00
2018-03-09T19:47:27.574Z,10.00
2018-03-09T19:49:55.810Z,9.80
2018-03-09T19:52:23.282Z,9.80
2018-03-09T19:54:50.794Z,9.80
2018-03-09T19:57:18.266Z,9.90
2018-03-09T19:59:45.985Z,9.90
2018-03-09T20:02:13.473Z,9.90
2018-03-09T20:04:40.941Z,9.90
2018-03-09T20:07:08.421Z,9.80
2018-03-09T20:09:36.683Z,9.80
2018-03-09T20:12:04.158Z,9.80
2018-03-09T20:14:32.393Z,9.80
2018-03-09T20:16:59.953Z,9.80
2018-03-09T20:19:27.439Z,9.80
2018-03-09T20:21:55.686Z,10.00
2018-03-09T20:24:23.178Z,9.90
2018-03-09T20:26:51.418Z,9.90
2018-03-09T20:42:23.300Z,10.80
2018-03-09T20:44:51.544Z,10.70
2018-03-09T20:47:20.535Z,10.30
2018-03-09T20:49:48.875Z,10.20
2018-03-09T20:52:16.345Z,10.10
2018-03-09T20:54:43.826Z,10.00
2018-03-09T20:57:11.324Z,10.00
2018-03-09T20:59:38.801Z,10.00
2018-03-09T21:02:06.281Z,10.00
2018-03-09T21:04:33.774Z,10.00
2018-03-09T21:07:02.014Z,9.90
2018-03-09T21:09:29.485Z,9.80
2018-03-09T21:11:57.758Z,10.00
2018-03-09T21:14:26.005Z,9.90
2018-03-09T21:16:53.694Z,9.80
2018-03-09T21:19:21.182Z,9.80
2018-03-09T21:21:49.417Z,9.80
2018-03-09T21:24:16.920Z,9.70
2018-03-09T21:26:45.174Z,9.70
2018-03-09T21:29:13.413Z,9.70
2018-03-09T21:31:40.901Z,9.70
2018-03-09T21:34:08.394Z,9.70
2018-03-09T21:36:35.869Z,9.60
2018-03-09T21:39:03.350Z,9.60
2018-03-09T21:41:30.854Z,9.50
2018-03-09T21:43:59.093Z,9.20
2018-03-09T21:46:28.078Z,9.20
2018-03-09T21:48:57.139Z,9.10
2018-03-09T22:04:23.014Z,9.70
2018-03-09T22:06:51.266Z,9.50
2018-03-09T22:09:20.250Z,9.20
2018-03-09T22:11:48.505Z,9.00
2018-03-09T22:14:16.004Z,9.00
2018-03-09T22:16:44.245Z,8.70
2018-03-09T22:19:11.741Z,8.70
2018-03-09T22:21:39.981Z,8.60
2018-03-09T22:24:07.454Z,8.60
2018-03-09T22:26:35.722Z,8.60
2018-03-09T22:29:04.711Z,8.70
2018-03-09T22:31:32.961Z,8.70
2018-03-09T22:34:00.453Z,8.60
2018-03-09T22:36:29.457Z,8.60
2018-03-09T22:38:57.717Z,8.60
2018-03-09T22:41:25.218Z,8.60
2018-03-09T22:43:52.693Z,8.50
2018-03-09T22:46:20.169Z,8.50
2018-03-09T22:48:47.693Z,8.50
2018-03-09T22:51:15.192Z,8.40
2018-03-09T22:53:42.673Z,8.30
2018-03-09T22:56:10.937Z,8.20
2018-03-09T22:58:39.185Z,8.20
2018-03-09T23:01:06.661Z,8.20
2018-03-09T23:03:34.153Z,8.20
2018-03-09T23:06:02.396Z,8.20
2018-03-09T23:08:30.638Z,8.20
2018-03-09T23:10:58.138Z,8.20
2018-03-09T23:13:25.614Z,8.30
2018-03-09T23:15:53.853Z,8.10
2018-03-09T23:18:21.349Z,8.10
2018-03-09T23:20:49.590Z,8.20
2018-03-09T23:23:18.577Z,8.10
2018-03-09T23:25:46.073Z,8.10
2018-03-09T23:28:14.321Z,8.10
2018-03-09T23:30:43.309Z,7.90
2018-03-09T23:33:11.600Z,7.80
2018-03-09T23:35:39.853Z,7.70
2018-03-09T23:38:07.329Z,7.60
2018-03-09T23:40:36.338Z,7.70
2018-03-09T23:43:04.598Z,7.80
2018-03-09T23:45:33.577Z,7.80
2018-03-09T23:48:02.582Z,7.80
2018-03-09T23:50:30.841Z,7.90
2018-03-09T23:52:58.537Z,7.90
2018-03-09T23:55:26.801Z,7.90
2018-03-09T23:57:55.042Z,8.00
